Time;durP1;ratioP1;P1;durP2;ratioP2;P2;SDS_P1;SDS_P2;PMS_P1;PMS_P2;Temp;Humidity;BMP_temperature;BMP_pressure;BME280_temperature;BME280_humidity;BME280_pressure;Samples;Min_cycle;Max_cycle;Signal;HPM_P1;HPM_P2
2022/08/26 00:01:40;;;;;;;11.48;7.35;;;24.00;77.60;;;;;;5073533;28;20120;-89
2022/08/26 00:04:07;;;;;;;12.82;7.97;;;24.00;77.80;;;;;;5059547;28;20431;-89
2022/08/26 00:06:33;;;;;;;13.35;6.88;;;23.90;77.80;;;;;;5076898;28;20042;-89
2022/08/26 00:08:58;;;;;;;12.07;7.03;;;23.90;78.00;;;;;;5059496;28;20475;-89
2022/08/26 00:11:24;;;;;;;13.88;7.07;;;23.90;78.00;;;;;;5076001;28;20078;-88
2022/08/26 00:13:50;;;;;;;9.85;6.82;;;23.90;78.20;;;;;;5076900;28;20074;-89
2022/08/26 00:16:15;;;;;;;13.90;6.50;;;23.90;78.90;;;;;;5075571;28;20059;-87
2022/08/26 00:18:41;;;;;;;12.38;6.75;;;23.90;78.40;;;;;;5076212;28;20028;-88
2022/08/26 00:21:08;;;;;;;19.67;6.78;;;23.80;78.40;;;;;;5059086;28;20036;-89
2022/08/26 00:23:34;;;;;;;10.68;6.15;;;23.90;78.50;;;;;;5059604;28;20028;-88
2022/08/26 00:26:03;;;;;;;12.13;5.95;;;23.80;78.60;;;;;;5076562;28;20487;-90
2022/08/26 00:28:29;;;;;;;10.98;5.82;;;23.80;78.70;;;;;;5079301;28;20357;-89
2022/08/26 00:30:55;;;;;;;9.93;6.03;;;23.80;78.80;;;;;;5062773;28;20025;-89
2022/08/26 00:33:21;;;;;;;11.95;5.72;;;23.80;78.90;;;;;;5062092;28;20060;-90
2022/08/26 00:35:47;;;;;;;13.45;5.60;;;23.80;78.90;;;;;;5076449;28;20056;-89
2022/08/26 00:38:14;;;;;;;9.93;5.40;;;23.80;79.00;;;;;;5077453;28;20082;-89
2022/08/26 00:40:46;;;;;;;13.00;5.57;;;23.70;79.00;;;;;;5075992;28;20438;-89
2022/08/26 00:43:13;;;;;;;17.45;5.30;;;23.70;79.20;;;;;;5080326;28;20103;-88
2022/08/26 00:45:48;;;;;;;9.77;4.60;;;23.70;79.20;;;;;;5062774;28;20481;-86
2022/08/26 00:48:16;;;;;;;9.75;4.07;;;23.70;79.40;;;;;;5076632;28;20028;-88
2022/08/26 00:50:51;;;;;;;14.55;4.78;;;23.70;79.40;;;;;;5075643;28;20016;-88
2022/08/26 00:53:22;;;;;;;7.85;3.97;;;23.60;79.40;;;;;;5076867;28;20055;-88
2022/08/26 00:55:58;;;;;;;10.55;4.43;;;23.60;79.50;;;;;;5076139;28;20099;-88
2022/08/26 00:58:26;;;;;;;9.93;3.75;;;23.70;79.60;;;;;;5076302;28;20045;-90
2022/08/26 01:00:53;;;;;;;6.55;3.25;;;23.60;79.60;;;;;;5074961;28;20405;-88
2022/08/26 01:03:23;;;;;;;9.55;4.22;;;23.60;79.60;;;;;;5075154;28;20060;-88
2022/08/26 01:05:50;;;;;;;9.10;3.17;;;23.60;79.80;;;;;;5076286;28;20037;-88
2022/08/26 01:08:15;;;;;;;8.50;3.08;;;23.60;79.90;;;;;;5058936;28;20036;-89
2022/08/26 01:10:42;;;;;;;8.05;2.97;;;23.60;79.90;;;;;;5075195;28;20028;-90
2022/08/26 01:13:10;;;;;;;7.55;2.78;;;23.50;79.90;;;;;;5074690;28;20493;-90
2022/08/26 01:15:42;;;;;;;6.75;2.55;;;23.50;80.00;;;;;;5076420;28;20463;-86
2022/08/26 01:18:09;;;;;;;5.13;2.38;;;23.50;80.10;;;;;;5074511;28;20021;-90
2022/08/26 01:20:59;;;;;;;5.97;2.30;;;23.50;80.00;;;;;;5074807;28;20017;-89
2022/08/26 01:23:32;;;;;;;5.82;2.40;;;23.50;80.20;;;;;;5074912;28;20032;-88
2022/08/26 01:26:05;;;;;;;9.40;2.67;;;23.50;80.10;;;;;;5074140;28;20043;-88
2022/08/26 01:28:32;;;;;;;7.40;2.33;;;23.50;80.10;;;;;;5074446;28;20478;-90
2022/08/26 01:31:00;;;;;;;11.02;2.53;;;23.40;80.20;;;;;;5074432;28;20043;-88
2022/08/26 01:33:46;;;;;;;8.82;2.83;;;23.40;80.20;;;;;;5074316;28;20021;-89
2022/08/26 01:36:12;;;;;;;5.43;2.03;;;23.40;80.40;;;;;;5074776;28;20029;-88
2022/08/26 01:38:39;;;;;;;9.95;2.63;;;23.40;80.30;;;;;;5075822;28;20029;-88
2022/08/26 01:41:06;;;;;;;6.65;2.25;;;23.40;80.50;;;;;;5077385;28;20025;-89
2022/08/26 01:43:33;;;;;;;7.18;1.98;;;23.30;80.50;;;;;;5075025;28;20055;-89
2022/08/26 01:46:01;;;;;;;9.13;2.60;;;23.30;80.60;;;;;;5076092;28;20036;-90
2022/08/26 01:48:30;;;;;;;5.68;2.10;;;23.30;80.80;;;;;;5075438;28;20029;-90
2022/08/26 01:50:57;;;;;;;5.63;1.70;;;23.30;80.90;;;;;;5075152;28;20039;-89
2022/08/26 01:53:24;;;;;;;5.30;1.65;;;23.30;80.90;;;;;;5075490;28;20024;-89
2022/08/26 01:55:55;;;;;;;8.75;2.03;;;23.30;80.90;;;;;;5074182;28;20477;-91
2022/08/26 01:58:35;;;;;;;5.55;1.88;;;23.20;80.90;;;;;;5075233;28;20048;-91
2022/08/26 02:01:01;;;;;;;6.28;2.00;;;23.20;81.00;;;;;;5073954;28;20162;-88
2022/08/26 02:03:27;;;;;;;6.75;2.42;;;23.10;81.00;;;;;;5073806;28;20031;-87
2022/08/26 02:05:54;;;;;;;5.65;2.13;;;23.10;81.20;;;;;;5074846;28;20031;-90
2022/08/26 02:08:27;;;;;;;7.72;2.33;;;23.10;81.30;;;;;;5073933;28;20028;-90
2022/08/26 02:10:54;;;;;;;5.27;1.93;;;23.10;81.50;;;;;;5073554;28;20024;-89
2022/08/26 02:13:20;;;;;;;6.25;2.00;;;23.00;81.60;;;;;;5074398;28;20275;-90
2022/08/26 02:15:47;;;;;;;5.70;1.73;;;23.00;81.60;;;;;;5073629;28;20032;-89
2022/08/26 02:18:12;;;;;;;7.88;2.58;;;23.00;81.70;;;;;;5073471;28;20029;-91
2022/08/26 02:20:38;;;;;;;7.53;1.63;;;23.00;81.90;;;;;;5074117;28;20039;-91
2022/08/26 02:23:05;;;;;;;4.82;1.75;;;23.00;82.10;;;;;;5073585;28;20054;-90
2022/08/26 02:25:48;;;;;;;6.43;1.85;;;22.90;82.10;;;;;;5073751;28;20040;-92
2022/08/26 02:28:16;;;;;;;8.25;2.40;;;22.90;82.30;;;;;;5074915;28;20029;-90
2022/08/26 02:30:42;;;;;;;5.72;1.77;;;22.90;82.40;;;;;;5075156;28;20032;-90
2022/08/26 02:33:08;;;;;;;6.80;1.42;;;22.80;82.50;;;;;;5074058;28;20106;-89
2022/08/26 02:35:35;;;;;;;7.30;2.42;;;22.80;83.20;;;;;;5074997;28;20480;-89
2022/08/26 02:38:01;;;;;;;5.65;1.70;;;22.80;82.70;;;;;;5073665;28;20100;-89
2022/08/26 02:40:30;;;;;;;5.63;1.45;;;22.80;82.80;;;;;;5074529;28;20103;-90
2022/08/26 02:42:56;;;;;;;5.30;1.55;;;22.80;83.00;;;;;;5074277;28;20021;-89
2022/08/26 02:45:22;;;;;;;6.47;1.88;;;22.80;83.10;;;;;;5072939;28;20504;-89
2022/08/26 02:47:49;;;;;;;7.25;1.50;;;22.70;83.20;;;;;;5056318;28;20033;-89
2022/08/26 02:50:15;;;;;;;4.68;1.70;;;22.70;83.30;;;;;;5073023;28;20048;-90
2022/08/26 02:52:40;;;;;;;7.60;1.58;;;22.70;83.40;;;;;;5073344;28;20094;-90
2022/08/26 02:55:06;;;;;;;8.38;1.85;;;22.70;83.50;;;;;;5073790;28;20064;-91
2022/08/26 02:57:32;;;;;;;5.43;1.35;;;22.70;83.60;;;;;;5072283;28;20063;-90
2022/08/26 02:59:59;;;;;;;4.53;1.42;;;22.70;83.60;;;;;;5073064;28;20021;-89
2022/08/26 03:02:26;;;;;;;5.22;1.50;;;22.70;83.70;;;;;;5073823;28;20491;-89
2022/08/26 03:04:52;;;;;;;4.68;1.42;;;22.60;83.70;;;;;;5072917;28;20040;-89
2022/08/26 03:07:19;;;;;;;5.25;1.58;;;22.70;83.80;;;;;;5056145;28;20033;-91
2022/08/26 03:09:44;;;;;;;6.20;1.23;;;22.60;83.80;;;;;;5072827;28;20058;-91
2022/08/26 03:12:10;;;;;;;5.53;1.27;;;22.60;83.90;;;;;;5055834;28;20033;-90
2022/08/26 03:14:36;;;;;;;8.20;1.88;;;22.60;83.90;;;;;;5056021;28;20025;-88
2022/08/26 03:17:02;;;;;;;5.68;1.00;;;22.60;84.00;;;;;;5072893;28;20048;-90
2022/08/26 03:19:29;;;;;;;4.28;1.42;;;22.60;84.10;;;;;;5056329;28;20033;-91
2022/08/26 03:21:54;;;;;;;7.82;1.55;;;22.60;84.20;;;;;;5073204;28;20050;-91
2022/08/26 03:24:20;;;;;;;10.80;1.20;;;22.60;84.30;;;;;;5056252;28;20029;-90
2022/08/26 03:26:46;;;;;;;5.32;1.10;;;22.60;84.40;;;;;;5072360;28;20498;-90
2022/08/26 03:31:56;;;;;;;4.10;1.38;;;22.60;84.50;;;;;;5073110;28;20086;-90
2022/08/26 03:34:22;;;;;;;7.25;1.30;;;22.60;84.70;;;;;;5055916;28;20028;-92
2022/08/26 03:36:48;;;;;;;6.20;1.25;;;22.50;84.70;;;;;;5077247;28;20043;-89
2022/08/26 03:39:13;;;;;;;4.95;1.48;;;22.60;84.80;;;;;;5076470;28;20103;-90
2022/08/26 03:41:40;;;;;;;6.65;1.45;;;22.50;84.80;;;;;;5059916;28;20040;-90
2022/08/26 03:44:09;;;;;;;4.40;1.40;;;22.60;85.00;;;;;;5076822;28;20025;-90
2022/08/26 03:46:36;;;;;;;5.28;1.48;;;22.50;85.00;;;;;;5076625;28;20048;-90
2022/08/26 03:49:04;;;;;;;4.50;1.45;;;22.50;85.10;;;;;;5076519;28;20086;-91
2022/08/26 03:51:31;;;;;;;5.95;1.38;;;22.50;85.20;;;;;;5076108;28;20025;-89
2022/08/26 03:53:59;;;;;;;4.15;1.00;;;22.60;85.20;;;;;;5077390;28;20036;-90
2022/08/26 03:56:26;;;;;;;5.63;1.48;;;22.60;85.30;;;;;;5059028;28;20028;-89
2022/08/26 03:58:52;;;;;;;4.88;1.15;;;22.60;86.00;;;;;;5075813;28;20056;-88
2022/08/26 04:01:18;;;;;;;7.50;1.40;;;22.60;85.40;;;;;;5076450;28;20090;-90
2022/08/26 04:03:59;;;;;;;6.93;1.30;;;22.60;85.40;;;;;;5075790;28;20028;-91
2022/08/26 04:06:28;;;;;;;6.20;1.15;;;22.60;85.40;;;;;;5077487;28;20045;-90
2022/08/26 04:08:56;;;;;;;6.28;1.15;;;22.60;85.40;;;;;;5076137;28;20560;-92
2022/08/26 04:11:29;;;;;;;5.82;0.80;;;22.60;85.40;;;;;;5076201;28;20028;-91
2022/08/26 04:13:55;;;;;;;4.57;0.88;;;22.60;85.50;;;;;;5075810;28;20055;-89
2022/08/26 04:16:20;;;;;;;4.53;0.93;;;22.60;85.50;;;;;;5077100;28;20372;-90
2022/08/26 04:18:46;;;;;;;3.45;1.00;;;22.60;85.60;;;;;;5059383;28;20035;-88
2022/08/26 04:21:12;;;;;;;6.45;0.77;;;22.60;85.70;;;;;;5076897;28;20523;-92
2022/08/26 04:23:38;;;;;;;4.78;1.00;;;22.60;85.80;;;;;;5076909;28;20040;-90
2022/08/26 04:26:04;;;;;;;5.22;1.10;;;22.60;85.80;;;;;;5076106;28;20094;-91
2022/08/26 04:28:30;;;;;;;3.67;0.70;;;22.60;85.90;;;;;;5075733;28;20025;-90
2022/08/26 04:30:56;;;;;;;2.58;0.63;;;22.60;85.90;;;;;;5058979;28;20473;-90
2022/08/26 04:33:22;;;;;;;4.07;0.90;;;22.60;85.90;;;;;;5075740;28;20028;-92
2022/08/26 04:35:48;;;;;;;4.68;0.80;;;22.60;86.00;;;;;;5075715;28;20089;-91
2022/08/26 04:38:15;;;;;;;3.28;0.70;;;22.60;86.00;;;;;;5059109;28;20066;-91
2022/08/26 04:40:45;;;;;;;4.55;0.98;;;22.60;85.90;;;;;;5077227;28;20028;-91
2022/08/26 04:43:11;;;;;;;3.83;0.73;;;22.60;85.90;;;;;;5077276;28;20036;-90
2022/08/26 04:45:38;;;;;;;3.08;0.63;;;22.60;85.90;;;;;;5059951;28;20469;-90
2022/08/26 04:48:04;;;;;;;2.05;0.65;;;22.60;85.90;;;;;;5076334;28;20100;-91
2022/08/26 04:50:30;;;;;;;3.38;0.77;;;22.60;85.80;;;;;;5076229;28;20052;-90
2022/08/26 04:52:56;;;;;;;3.28;0.80;;;22.60;85.90;;;;;;5058928;28;20024;-90
2022/08/26 04:55:22;;;;;;;3.25;0.80;;;22.60;85.90;;;;;;5058384;28;20031;-90
2022/08/26 04:57:48;;;;;;;4.53;0.52;;;22.60;86.00;;;;;;5076008;28;20059;-90
2022/08/26 05:00:14;;;;;;;3.80;0.63;;;22.60;86.00;;;;;;5075208;28;20058;-89
2022/08/26 05:02:40;;;;;;;5.43;0.90;;;22.60;86.00;;;;;;5075358;28;20115;-89
2022/08/26 05:05:06;;;;;;;5.70;0.80;;;22.70;86.10;;;;;;5058511;28;20456;-88
2022/08/26 05:07:34;;;;;;;3.50;0.60;;;22.70;86.10;;;;;;5058742;28;20377;-90
2022/08/26 05:10:00;;;;;;;5.78;0.90;;;22.70;86.10;;;;;;5076203;28;20025;-88
2022/08/26 05:12:28;;;;;;;3.13;0.60;;;22.70;86.00;;;;;;5074935;28;20017;-89
2022/08/26 05:14:54;;;;;;;4.55;0.73;;;22.70;86.00;;;;;;5074810;28;20036;-90
2022/08/26 05:17:19;;;;;;;2.53;0.63;;;22.70;86.00;;;;;;5058240;28;20028;-89
2022/08/26 05:19:46;;;;;;;3.00;0.80;;;22.70;86.00;;;;;;5076374;28;20025;-90
2022/08/26 05:22:12;;;;;;;4.82;0.63;;;22.70;86.00;;;;;;5059875;28;20031;-90
2022/08/26 05:24:37;;;;;;;2.63;0.50;;;22.80;86.00;;;;;;5067533;28;20056;-90
2022/08/26 05:27:03;;;;;;;2.17;0.57;;;22.80;86.00;;;;;;5054213;28;20465;-91
2022/08/26 05:29:29;;;;;;;6.43;0.68;;;22.80;85.90;;;;;;5036869;28;20033;-87
2022/08/26 05:31:54;;;;;;;4.40;0.55;;;22.80;85.90;;;;;;5053974;28;20032;-91
2022/08/26 05:34:20;;;;;;;4.18;0.70;;;22.80;85.80;;;;;;5055612;28;20346;-90
2022/08/26 05:36:46;;;;;;;3.20;0.57;;;22.80;85.80;;;;;;5054284;28;20413;-91
2022/08/26 05:39:12;;;;;;;4.65;0.80;;;22.80;85.80;;;;;;5054505;28;20040;-87
2022/08/26 05:41:40;;;;;;;5.03;0.68;;;22.90;85.90;;;;;;5054277;28;20037;-91
2022/08/26 05:44:10;;;;;;;5.88;0.65;;;22.90;85.80;;;;;;5055085;28;20029;-91
2022/08/26 05:46:37;;;;;;;3.88;0.60;;;22.90;85.80;;;;;;5054188;28;20045;-91
2022/08/26 05:49:04;;;;;;;6.90;0.80;;;22.90;85.70;;;;;;5037645;28;20036;-91
2022/08/26 05:51:30;;;;;;;3.30;0.57;;;22.90;85.70;;;;;;5054764;28;20036;-89
2022/08/26 05:53:55;;;;;;;3.80;0.60;;;23.00;85.70;;;;;;5054341;28;20033;-90
2022/08/26 05:56:26;;;;;;;6.13;0.68;;;23.00;85.60;;;;;;5054620;28;20040;-90
2022/08/26 05:58:53;;;;;;;3.13;0.60;;;23.00;85.50;;;;;;5052428;28;20092;-92
2022/08/26 06:01:21;;;;;;;3.45;0.60;;;23.00;85.50;;;;;;5053832;28;20087;-90
2022/08/26 06:03:50;;;;;;;4.82;1.08;;;23.00;85.50;;;;;;5055010;28;20163;-92
2022/08/26 06:06:25;;;;;;;3.63;0.50;;;23.10;85.40;;;;;;5053573;28;20489;-91
2022/08/26 06:08:52;;;;;;;3.03;0.70;;;23.00;85.30;;;;;;5054005;28;20028;-90
2022/08/26 06:11:24;;;;;;;4.32;0.40;;;23.10;85.30;;;;;;5053254;28;20028;-91
2022/08/26 06:13:50;;;;;;;5.35;0.55;;;23.10;85.20;;;;;;5053912;28;20024;-89
2022/08/26 06:16:17;;;;;;;4.13;0.43;;;23.10;85.10;;;;;;5055013;28;20423;-90
2022/08/26 06:18:45;;;;;;;5.43;0.60;;;23.10;85.00;;;;;;5054750;28;20078;-90
2022/08/26 06:21:30;;;;;;;3.85;0.60;;;23.10;85.00;;;;;;5053900;28;20382;-88
2022/08/26 06:26:51;;;;;;;3.60;0.60;;;23.20;84.80;;;;;;5054216;28;20048;-89
2022/08/26 06:29:19;;;;;;;5.38;0.80;;;23.20;84.60;;;;;;5053553;28;20087;-91
2022/08/26 06:31:44;;;;;;;3.00;0.60;;;23.20;84.50;;;;;;5055933;28;20120;-89
2022/08/26 06:34:10;;;;;;;4.82;0.50;;;23.20;84.40;;;;;;5055147;28;20068;-91
2022/08/26 06:36:36;;;;;;;6.72;0.90;;;23.20;84.40;;;;;;5056296;28;20029;-91
2022/08/26 06:39:05;;;;;;;8.13;0.70;;;23.20;84.50;;;;;;5054873;28;20450;-92
2022/08/26 06:41:33;;;;;;;3.92;0.73;;;23.20;84.40;;;;;;5055297;28;20025;-91
2022/08/26 06:43:59;;;;;;;8.30;0.80;;;23.20;84.30;;;;;;5054582;28;20033;-91
2022/08/26 06:46:25;;;;;;;5.10;0.80;;;23.20;84.20;;;;;;5057372;28;20049;-90
2022/08/26 06:48:52;;;;;;;5.00;0.70;;;23.20;84.10;;;;;;5056252;28;20470;-90
2022/08/26 06:51:24;;;;;;;5.90;0.80;;;23.20;84.10;;;;;;5054825;28;20029;-91
2022/08/26 06:53:52;;;;;;;7.03;0.93;;;23.20;84.20;;;;;;5053508;28;20029;-90
2022/08/26 06:56:21;;;;;;;7.78;0.60;;;23.20;84.20;;;;;;5053990;28;20056;-90
2022/08/26 06:58:48;;;;;;;4.97;0.90;;;23.20;84.20;;;;;;5052562;28;20041;-91
2022/08/26 07:01:18;;;;;;;6.10;0.80;;;23.30;84.20;;;;;;5054371;28;20453;-91
2022/08/26 07:03:44;;;;;;;5.43;0.65;;;23.30;84.10;;;;;;5053809;28;20061;-91
2022/08/26 07:06:10;;;;;;;6.03;0.57;;;23.40;84.10;;;;;;5070164;28;20040;-93
2022/08/26 07:08:36;;;;;;;5.38;0.70;;;23.40;83.90;;;;;;5053149;28;20028;-92
2022/08/26 07:11:09;;;;;;;5.03;0.50;;;23.40;83.70;;;;;;5056747;28;20075;-90
2022/08/26 07:13:36;;;;;;;3.90;0.45;;;23.40;83.60;;;;;;5060498;28;20111;-91
2022/08/26 07:16:04;;;;;;;3.67;0.70;;;23.40;83.50;;;;;;5059578;28;20796;-92
2022/08/26 07:18:30;;;;;;;5.40;0.98;;;23.50;83.40;;;;;;5059302;28;20024;-90
2022/08/26 07:20:56;;;;;;;5.72;0.85;;;23.40;83.30;;;;;;5059477;28;20504;-93
2022/08/26 07:23:21;;;;;;;6.20;0.77;;;23.50;83.10;;;;;;5059495;28;20033;-91
2022/08/26 07:25:47;;;;;;;3.22;0.50;;;23.50;83.00;;;;;;5059012;28;20044;-91
2022/08/26 07:28:13;;;;;;;4.53;0.50;;;23.50;83.00;;;;;;5059288;28;20086;-92
2022/08/26 07:30:40;;;;;;;2.75;0.50;;;23.50;83.00;;;;;;5043508;28;20112;-92
2022/08/26 07:33:06;;;;;;;5.10;0.50;;;23.60;82.90;;;;;;5060983;28;20032;-91
2022/08/26 07:35:32;;;;;;;4.15;0.77;;;23.60;82.80;;;;;;5059531;28;20087;-91
2022/08/26 07:37:57;;;;;;;5.78;0.70;;;23.60;82.60;;;;;;5060776;28;20421;-90
2022/08/26 07:40:23;;;;;;;5.40;0.60;;;23.60;82.60;;;;;;5060610;28;20107;-89
2022/08/26 07:42:49;;;;;;;3.13;0.77;;;23.60;82.50;;;;;;5059531;28;20055;-91
2022/08/26 07:45:15;;;;;;;3.58;0.43;;;23.60;82.40;;;;;;5059647;28;20044;-92
2022/08/26 07:47:41;;;;;;;5.75;0.60;;;23.60;82.20;;;;;;5059237;28;20082;-91
2022/08/26 07:50:07;;;;;;;2.00;0.38;;;23.70;82.10;;;;;;5059942;28;20055;-93
2022/08/26 07:52:32;;;;;;;2.53;0.50;;;23.70;81.90;;;;;;5060658;28;20465;-89
2022/08/26 07:55:00;;;;;;;5.00;0.63;;;23.70;81.80;;;;;;5042530;28;20047;-91
2022/08/26 07:57:27;;;;;;;5.93;0.70;;;23.70;81.60;;;;;;5059265;28;20017;-91
2022/08/26 07:59:53;;;;;;;4.20;0.40;;;23.70;81.50;;;;;;5058976;28;20060;-89
2022/08/26 08:02:19;;;;;;;4.78;0.73;;;23.60;81.30;;;;;;5062542;28;20503;-91
2022/08/26 08:04:45;;;;;;;3.47;0.40;;;23.60;81.30;;;;;;5047511;28;20119;-91
2022/08/26 08:07:11;;;;;;;6.35;0.65;;;23.60;81.30;;;;;;5043719;28;20533;-90
2022/08/26 08:09:36;;;;;;;2.35;0.40;;;23.60;81.20;;;;;;5059656;28;20057;-90
2022/08/26 08:12:03;;;;;;;5.32;0.40;;;23.60;81.30;;;;;;5058909;28;20166;-90
2022/08/26 08:14:29;;;;;;;4.10;0.35;;;23.50;81.20;;;;;;5060348;28;20055;-93
2022/08/26 08:16:55;;;;;;;2.30;0.47;;;23.60;81.30;;;;;;5059730;28;20029;-92
2022/08/26 08:19:22;;;;;;;3.22;0.40;;;23.60;81.30;;;;;;5059038;28;20423;-93
2022/08/26 08:21:48;;;;;;;2.58;0.70;;;23.60;81.20;;;;;;5058455;28;20079;-89
2022/08/26 08:24:14;;;;;;;5.30;0.70;;;23.60;81.20;;;;;;5057364;28;20029;-91
2022/08/26 08:26:40;;;;;;;4.28;0.73;;;23.60;81.30;;;;;;5056607;28;20037;-89
2022/08/26 08:29:07;;;;;;;4.85;0.57;;;23.60;81.30;;;;;;5058706;28;20033;-91
2022/08/26 08:31:34;;;;;;;6.65;0.93;;;23.60;81.30;;;;;;5055949;28;20029;-89
2022/08/26 08:34:00;;;;;;;2.42;0.50;;;23.70;81.40;;;;;;5056539;28;20048;-91
2022/08/26 08:36:26;;;;;;;5.60;0.47;;;23.60;81.20;;;;;;5055620;28;20029;-90
2022/08/26 08:38:52;;;;;;;3.90;0.45;;;23.70;81.10;;;;;;5057065;28;20123;-88
2022/08/26 08:41:45;;;;;;;3.17;0.50;;;23.70;81.00;;;;;;5058142;28;20377;-92
2022/08/26 08:44:19;;;;;;;5.33;0.70;;;23.70;80.80;;;;;;5058103;28;20025;-91
2022/08/26 08:46:46;;;;;;;;;;;23.70;80.70;;;;;;5057766;28;20329;-91
2022/08/26 08:49:13;;;;;;;5.03;0.77;;;23.70;80.70;;;;;;5056149;28;19904;-89
2022/08/26 08:51:48;;;;;;;3.45;0.40;;;23.70;80.50;;;;;;5056074;28;20236;-89
2022/08/26 08:54:14;;;;;;;4.78;0.50;;;23.80;80.60;;;;;;5055601;28;20048;-89
2022/08/26 08:56:51;;;;;;;8.55;0.80;;;23.80;80.50;;;;;;5054897;28;20028;-90
2022/08/26 08:59:26;;;;;;;4.10;0.50;;;23.80;80.40;;;;;;5054822;28;20048;-88
2022/08/26 09:01:55;;;;;;;7.68;0.60;;;23.80;80.40;;;;;;5055327;28;20024;-92
2022/08/26 09:04:42;;;;;;;4.05;0.50;;;23.90;80.50;;;;;;5054881;28;20079;-91
2022/08/26 09:07:14;;;;;;;5.35;0.47;;;23.90;80.50;;;;;;5056735;28;20048;-89
2022/08/26 09:09:45;;;;;;;4.88;0.68;;;23.90;80.30;;;;;;5056517;28;20075;-89
2022/08/26 09:12:23;;;;;;;4.45;0.63;;;23.90;80.20;;;;;;5055098;28;20031;-90
2022/08/26 09:14:50;;;;;;;7.63;0.65;;;23.80;80.10;;;;;;5054934;28;20075;-92
2022/08/26 09:17:39;;;;;;;5.03;0.95;;;23.80;80.10;;;;;;5055283;28;20037;-91
2022/08/26 09:20:26;;;;;;;5.45;0.77;;;23.90;80.10;;;;;;5056224;28;20021;-92
2022/08/26 09:22:52;;;;;;;6.80;0.70;;;23.90;80.00;;;;;;5055687;28;20025;-94
2022/08/26 09:25:18;;;;;;;5.03;0.50;;;23.90;80.00;;;;;;5055557;28;20035;-93
2022/08/26 09:27:47;;;;;;;3.97;0.43;;;23.90;80.00;;;;;;5039136;28;20037;-91
2022/08/26 09:30:33;;;;;;;4.53;0.60;;;23.90;79.90;;;;;;5056405;28;20025;-92
2022/08/26 09:33:03;;;;;;;6.25;0.82;;;23.90;79.80;;;;;;5054363;28;20029;-90
2022/08/26 09:35:35;;;;;;;7.22;0.75;;;23.90;79.60;;;;;;5055467;28;20087;-91
2022/08/26 09:38:18;;;;;;;6.35;0.90;;;24.00;79.60;;;;;;5054494;28;20020;-90
2022/08/26 09:41:00;;;;;;;8.25;0.77;;;24.00;79.60;;;;;;5054569;28;20028;-91
2022/08/26 09:43:27;;;;;;;7.97;1.17;;;24.00;80.10;;;;;;5055645;28;20045;-90
2022/08/26 09:46:08;;;;;;;4.40;0.45;;;24.00;79.40;;;;;;5054199;28;20021;-91
2022/08/26 09:48:37;;;;;;;2.50;0.60;;;23.90;79.20;;;;;;5054511;28;20021;-91
2022/08/26 09:51:21;;;;;;;4.55;1.27;;;23.90;79.20;;;;;;5055451;28;20100;-92
2022/08/26 09:53:54;;;;;;;3.47;0.60;;;23.90;79.20;;;;;;5054646;28;20449;-91
2022/08/26 09:56:26;;;;;;;3.65;0.50;;;23.90;79.20;;;;;;5054028;28;20057;-90
2022/08/26 09:58:53;;;;;;;6.40;0.63;;;23.90;79.10;;;;;;5054950;28;20045;-90
2022/08/26 10:01:22;;;;;;;2.33;0.50;;;24.00;79.00;;;;;;5053987;28;20025;-90
2022/08/26 10:03:49;;;;;;;6.40;0.50;;;24.00;78.80;;;;;;5054191;28;20086;-92
2022/08/26 10:06:20;;;;;;;5.47;0.90;;;24.00;78.70;;;;;;5053731;28;20439;-88
2022/08/26 10:08:50;;;;;;;3.60;0.80;;;24.10;78.60;;;;;;5055274;28;20017;-91
2022/08/26 10:11:30;;;;;;;2.58;0.60;;;24.20;78.40;;;;;;5054093;28;20071;-91
2022/08/26 10:14:39;;;;;;;5.57;0.55;;;24.20;78.20;;;;;;5053943;28;20021;-90
2022/08/26 10:17:12;;;;;;;4.63;0.43;;;24.20;78.10;;;;;;5054716;28;20060;-91
2022/08/26 10:19:43;;;;;;;5.53;0.80;;;24.10;77.90;;;;;;5055101;28;20079;-92
2022/08/26 10:22:33;;;;;;;2.95;0.50;;;24.20;77.80;;;;;;5054790;28;20029;-90
2022/08/26 10:25:03;;;;;;;6.53;0.50;;;24.20;77.80;;;;;;5054343;28;20025;-88
2022/08/26 10:27:35;;;;;;;3.85;0.60;;;24.20;77.60;;;;;;5053453;28;20039;-91
2022/08/26 10:30:09;;;;;;;3.92;0.60;;;24.20;77.50;;;;;;5053509;28;20044;-90
2022/08/26 10:32:46;;;;;;;4.82;0.50;;;24.20;77.50;;;;;;5054762;28;20111;-93
2022/08/26 10:35:14;;;;;;;4.60;0.50;;;24.20;77.40;;;;;;5054942;28;20028;-91
2022/08/26 10:37:57;;;;;;;4.63;0.30;;;24.30;77.40;;;;;;5055107;28;20028;-92
2022/08/26 10:40:26;;;;;;;4.82;0.50;;;24.30;77.10;;;;;;5053698;28;20457;-91
2022/08/26 10:42:57;;;;;;;4.05;0.52;;;24.30;77.00;;;;;;5055369;28;20063;-91
2022/08/26 10:45:26;;;;;;;5.78;0.60;;;24.30;76.80;;;;;;5053279;28;20068;-89
2022/08/26 10:47:58;;;;;;;2.97;0.45;;;24.40;76.70;;;;;;5058560;28;20041;-90
2022/08/26 10:50:28;;;;;;;2.97;0.50;;;24.40;76.50;;;;;;5058933;28;20016;-89
2022/08/26 10:53:22;;;;;;;1.63;0.22;;;24.30;76.40;;;;;;5055194;28;20036;-91
2022/08/26 10:55:58;;;;;;;3.53;0.50;;;24.40;76.40;;;;;;5049820;28;20086;-92
2022/08/26 10:58:46;;;;;;;2.88;0.47;;;24.40;76.40;;;;;;5055179;28;20045;-90
2022/08/26 11:04:22;;;;;;;2.05;0.30;;;24.40;76.30;;;;;;5054607;28;20043;-91
2022/08/26 11:06:48;;;;;;;2.92;0.40;;;24.40;76.10;;;;;;5053112;28;20116;-92
2022/08/26 11:09:42;;;;;;;4.13;0.50;;;24.30;75.90;;;;;;5054272;28;20060;-92
2022/08/26 11:12:07;;;;;;;1.90;0.38;;;24.30;75.70;;;;;;5052540;28;20044;-91
2022/08/26 11:14:34;;;;;;;4.65;0.50;;;24.20;75.60;;;;;;5053215;28;20025;-90
2022/08/26 11:17:01;;;;;;;2.60;0.30;;;24.20;75.60;;;;;;5053075;28;20025;-90
2022/08/26 11:19:29;;;;;;;4.07;0.40;;;24.20;75.60;;;;;;5054356;28;20608;-90
2022/08/26 11:22:10;;;;;;;1.95;0.32;;;24.20;75.60;;;;;;5053932;28;20095;-90
2022/08/26 11:24:51;;;;;;;4.18;0.40;;;24.20;76.10;;;;;;5053230;28;20029;-92
2022/08/26 11:27:25;;;;;;;4.43;0.50;;;24.20;75.40;;;;;;5054847;28;20052;-90
2022/08/26 11:30:01;;;;;;;2.92;0.43;;;24.10;75.30;;;;;;5054506;28;20116;-89
2022/08/26 11:32:33;;;;;;;2.95;0.40;;;24.20;75.30;;;;;;5054211;28;20025;-92
2022/08/26 11:35:04;;;;;;;6.68;0.60;;;24.20;75.30;;;;;;5053080;28;20036;-90
2022/08/26 11:37:56;;;;;;;6.43;0.40;;;24.10;75.20;;;;;;5052920;28;20044;-92
2022/08/26 11:40:27;;;;;;;1.63;0.40;;;24.10;75.20;;;;;;5047771;28;20044;-91
2022/08/26 11:43:06;;;;;;;1.95;0.30;;;24.10;75.10;;;;;;5054044;28;20022;-91
2022/08/26 11:45:37;;;;;;;4.25;0.40;;;24.10;74.90;;;;;;5054108;28;20029;-90
2022/08/26 11:48:27;;;;;;;4.88;0.70;;;24.10;74.80;;;;;;5053543;28;20033;-93
2022/08/26 11:50:52;;;;;;;3.47;0.50;;;24.10;74.70;;;;;;5053851;28;20369;-90
2022/08/26 11:53:18;;;;;;;5.93;0.38;;;24.10;74.60;;;;;;5054373;28;20025;-92
2022/08/26 11:55:44;;;;;;;5.05;0.50;;;24.10;74.60;;;;;;5054484;28;20029;-90
2022/08/26 11:58:11;;;;;;;3.47;0.60;;;24.00;74.60;;;;;;5054765;28;20139;-93
2022/08/26 12:00:43;;;;;;;2.60;0.30;;;24.10;74.60;;;;;;5058017;28;20037;-91
2022/08/26 12:03:16;;;;;;;3.38;0.50;;;24.10;74.50;;;;;;5056571;28;20033;-91
2022/08/26 12:05:45;;;;;;;3.53;0.30;;;24.10;74.40;;;;;;5058239;28;20465;-91
2022/08/26 12:08:15;;;;;;;3.30;0.40;;;24.10;74.40;;;;;;5058208;28;20036;-91
2022/08/26 12:10:41;;;;;;;3.38;0.60;;;24.10;74.40;;;;;;5057910;28;20029;-92
2022/08/26 12:13:15;;;;;;;3.13;0.40;;;24.10;74.30;;;;;;5057801;28;20021;-91
2022/08/26 12:15:50;;;;;;;2.47;0.40;;;24.10;74.20;;;;;;5057521;28;20029;-90
2022/08/26 12:18:18;;;;;;;4.13;0.38;;;24.10;74.00;;;;;;5056499;28;20071;-90
2022/08/26 12:20:47;;;;;;;3.65;0.30;;;24.10;73.80;;;;;;5058268;28;20029;-90
2022/08/26 12:23:34;;;;;;;3.13;0.38;;;24.10;73.60;;;;;;5056282;28;20455;-91
2022/08/26 12:26:26;;;;;;;3.28;0.50;;;24.10;73.50;;;;;;5056424;28;20484;-91
2022/08/26 12:29:01;;;;;;;2.95;0.40;;;24.10;73.40;;;;;;5057170;28;20029;-89
2022/08/26 12:31:37;;;;;;;2.15;0.40;;;24.10;73.40;;;;;;5055827;28;20017;-90
2022/08/26 12:34:15;;;;;;;5.38;0.32;;;24.10;73.20;;;;;;5057203;28;20051;-90
2022/08/26 12:36:56;;;;;;;5.28;0.35;;;24.10;73.00;;;;;;5057494;28;20021;-90
2022/08/26 12:39:34;;;;;;;2.58;0.35;;;24.20;73.00;;;;;;5060932;28;20017;-89
2022/08/26 12:42:02;;;;;;;1.70;0.30;;;24.20;73.00;;;;;;5062321;28;20036;-92
2022/08/26 12:44:48;;;;;;;1.55;0.20;;;24.30;73.00;;;;;;5061482;28;20032;-92
2022/08/26 12:47:25;;;;;;;2.20;0.25;;;24.40;72.70;;;;;;5058889;28;20106;-90
2022/08/26 12:50:18;;;;;;;2.30;0.30;;;24.60;72.40;;;;;;5060039;28;20032;-91
2022/08/26 12:53:12;;;;;;;3.22;0.30;;;24.60;72.10;;;;;;5062488;28;20021;-91
2022/08/26 12:55:42;;;;;;;3.13;0.30;;;24.70;71.90;;;;;;5059556;28;20060;-92
2022/08/26 12:58:17;;;;;;;1.85;0.15;;;24.70;71.70;;;;;;5065264;28;20041;-91
2022/08/26 13:00:45;;;;;;;2.30;0.30;;;24.70;71.50;;;;;;5065065;28;20538;-90
2022/08/26 13:03:36;;;;;;;4.60;0.40;;;24.70;71.50;;;;;;5059469;28;20059;-93
2022/08/26 13:06:39;;;;;;;2.10;0.35;;;24.80;71.50;;;;;;5055906;28;20036;-92
2022/08/26 13:09:07;;;;;;;3.33;0.40;;;24.80;71.50;;;;;;5057877;28;20098;-91